Kissidougou Airport


Codes: GUKU/KSI
Name: Kissidougou Airport
City: Kissidougou
Country: Guinea
Elevation: 1808 ft.

Photos at Kissidougou Airport


   Photos courtesy of SpottingLog. You can add your own sightings and photos by signing up for a free trial today.



No photos found.

Weather at Kissidougou Airport


Time (UTC)DescriptionTempratureWindCloud coverageVisibilityPressureHumidity
16-Jun-2024 12:00Overcast Clouds24°C2 mph, SW99%10000m1013hPa84%
16-Jun-2024 15:00Overcast Clouds27°C2 mph, SW87%10000m1011hPa70%
16-Jun-2024 18:00Light Rain26°C4 mph, SW83%10000m1010hPa83%
16-Jun-2024 21:00Light Rain22°C4 mph, SW95%10000m1013hPa95%
17-Jun-2024 00:00Light Rain22°C7 mph, SW97%10000m1013hPa97%
17-Jun-2024 03:00Light Rain21°C4 mph, SW98%10000m1012hPa97%
17-Jun-2024 06:00Moderate Rain21°C4 mph, NE99%7850m1014hPa99%
17-Jun-2024 09:00Moderate Rain20°C0 mph, NE100%10000m1015hPa97%
17-Jun-2024 12:00Light Rain23°C2 mph, NE100%10000m1013hPa83%
17-Jun-2024 15:00Overcast Clouds26°C2 mph, NE90%10000m1011hPa69%
17-Jun-2024 18:00Light Rain25°C2 mph, E83%10000m1011hPa82%
17-Jun-2024 21:00Light Rain22°C2 mph, SE89%10000m1013hPa92%
18-Jun-2024 00:00Light Rain21°C4 mph, S89%10000m1014hPa98%
18-Jun-2024 03:00Light Rain21°C4 mph, S99%10000m1013hPa99%
18-Jun-2024 06:00Light Rain21°C2 mph, S99%10000m1014hPa99%
18-Jun-2024 09:00Overcast Clouds22°C2 mph, S99%10000m1015hPa96%
18-Jun-2024 12:00Light Rain26°C4 mph, S95%10000m1014hPa76%
18-Jun-2024 15:00Light Rain26°C7 mph, S96%10000m1013hPa73%
18-Jun-2024 18:00Light Rain24°C4 mph, S98%10000m1012hPa88%
18-Jun-2024 21:00Light Rain22°C4 mph, S100%10000m1014hPa96%
19-Jun-2024 00:00Light Rain21°C4 mph, SW98%10000m1015hPa98%
19-Jun-2024 03:00Light Rain20°C2 mph, SW100%10000m1014hPa99%
19-Jun-2024 06:00Overcast Clouds20°C2 mph, SW100%10000m1014hPa98%
19-Jun-2024 09:00Overcast Clouds23°C2 mph, SW97%10000m1015hPa90%
19-Jun-2024 12:00Overcast Clouds27°C2 mph, SW91%10000m1014hPa69%
19-Jun-2024 15:00Light Rain29°C2 mph, SW84%10000m1012hPa62%
19-Jun-2024 18:00Light Rain26°C2 mph, S66%10000m1012hPa86%
19-Jun-2024 21:00Light Rain23°C4 mph, SW86%10000m1014hPa94%
20-Jun-2024 00:00Broken Clouds22°C4 mph, SW64%10000m1013hPa97%
20-Jun-2024 03:00Light Rain21°C4 mph, S46%10000m1013hPa99%
20-Jun-2024 06:00Light Rain21°C4 mph, S61%7351m1013hPa99%
20-Jun-2024 09:00Light Rain23°C2 mph, S97%10000m1015hPa93%
20-Jun-2024 12:00Light Rain23°C2 mph, NE98%10000m1015hPa93%
20-Jun-2024 15:00Light Rain25°C2 mph, NW100%10000m1012hPa79%
20-Jun-2024 18:00Overcast Clouds24°C4 mph, NE100%10000m1012hPa84%
20-Jun-2024 21:00Overcast Clouds21°C0 mph, E88%10000m1013hPa94%
21-Jun-2024 00:00Overcast Clouds21°C2 mph, SW88%10000m1014hPa96%
21-Jun-2024 03:00Overcast Clouds20°C4 mph, S90%10000m1013hPa98%
21-Jun-2024 06:00Overcast Clouds21°C4 mph, SW89%10000m1013hPa99%
21-Jun-2024 09:00Overcast Clouds24°C7 mph, S92%10000m1015hPa85%